Giffnock, United Kingdom
Current Conditions -  °F | °C
As of 5:50 PM on Tuesday 21 Oct 2014 (Local Time) from EGPF Reporting Station
Broken Clouds Broken Clouds  
Wind Chill: 39°   Ceiling: 3500
Heat Index: 46°   Visibility: 6mi
Dew Point: 36°   Wind: 20mph
Humidity: 66%   Direction: 310°NW
Pressure: 29.83"   Gusts: 31mph
Location:  55.8°N, 4.29°W
Report Text: EGPF 211650Z AUTO 31017G27KT 9999 FEW025 BKN035 08/02 Q1010
Loading
Personal Weather Stations






























Interactive Weather Map
Tropical Storm Tracking
New forecast layout! Learn more

10-Day Weather Forecast

Advertisements
Track Severe Weather on mobile